Time;durP1;ratioP1;P1;durP2;ratioP2;P2;SDS_P1;SDS_P2;PMS_P1;PMS_P2;Temp;Humidity;BMP_temperature;BMP_pressure;BME280_temperature;BME280_humidity;BME280_pressure;Samples;Min_cycle;Max_cycle;Signal;HPM_P1;HPM_P2
2021/04/02 00:00:53;;;;;;;2.10;1.20;;;20.60;43.10;;;;;;20847760;28;20404;-23
2021/04/02 00:10:56;;;;;;;2.60;0.98;;;20.50;42.90;;;;;;20845855;28;20041;-22
2021/04/02 00:20:58;;;;;;;3.22;1.10;;;20.50;42.50;;;;;;20848378;28;20411;-22
2021/04/02 00:31:00;;;;;;;1.65;1.23;;;20.40;42.40;;;;;;20833615;28;20103;-22
2021/04/02 00:41:07;;;;;;;2.25;0.77;;;20.50;42.00;;;;;;20838263;28;20112;-24
2021/04/02 00:51:23;;;;;;;1.27;0.65;;;20.40;41.80;;;;;;20856768;28;20042;-23
2021/04/02 01:01:23;;;;;;;1.67;0.77;;;20.40;42.10;;;;;;20868462;28;20030;-21
2021/04/02 01:11:26;;;;;;;3.45;0.57;;;20.30;42.10;;;;;;20866572;22;20068;-21
2021/04/02 01:21:49;;;;;;;1.98;0.73;;;20.30;42.10;;;;;;20862467;28;20086;-19
2021/04/02 01:31:56;;;;;;;1.23;0.50;;;20.30;42.20;;;;;;20901182;28;20040;-25
2021/04/02 01:41:58;;;;;;;1.33;0.32;;;20.30;42.30;;;;;;20913535;28;20035;-21
2021/04/02 01:51:59;;;;;;;1.00;0.40;;;20.30;42.50;;;;;;20921076;28;20025;-22
2021/04/02 02:02:02;;;;;;;2.67;0.80;;;20.30;43.00;;;;;;20939385;28;20036;-25
2021/04/02 02:12:07;;;;;;;1.63;0.50;;;20.30;42.60;;;;;;20937254;28;20100;-25
2021/04/02 02:22:10;;;;;;;1.25;0.65;;;20.30;43.20;;;;;;20923730;28;20033;-24
2021/04/02 02:32:11;;;;;;;0.75;0.28;;;20.20;43.80;;;;;;20931719;28;20416;-25
2021/04/02 02:42:12;;;;;;;2.50;0.30;;;20.30;44.10;;;;;;20907161;28;20071;-25
2021/04/02 02:52:14;;;;;;;1.20;0.47;;;20.20;44.40;;;;;;20924162;28;20513;-21
2021/04/02 03:02:17;;;;;;;2.42;0.40;;;20.20;43.70;;;;;;20926032;28;20036;-19
2021/04/02 03:12:19;;;;;;;1.52;0.30;;;20.20;43.50;;;;;;20923756;28;20498;-24
2021/04/02 03:22:20;;;;;;;1.77;0.30;;;20.10;43.50;;;;;;20929981;28;20110;-24
2021/04/02 03:32:25;;;;;;;1.35;0.32;;;20.10;43.30;;;;;;20897653;28;20466;-24
2021/04/02 03:42:27;;;;;;;1.65;0.20;;;20.10;43.40;;;;;;20909452;28;20075;-24
2021/04/02 03:52:32;;;;;;;0.40;0.20;;;20.10;43.30;;;;;;20888811;28;20036;-22
2021/04/02 04:02:32;;;;;;;0.60;0.30;;;20.10;43.10;;;;;;20872729;28;20059;-21
2021/04/02 04:12:35;;;;;;;0.85;0.20;;;20.00;43.10;;;;;;20861003;28;20088;-27
2021/04/02 04:22:39;;;;;;;2.70;0.30;;;20.20;42.60;;;;;;20836550;28;20033;-20
2021/04/02 04:32:40;;;;;;;0.20;0.10;;;20.50;41.90;;;;;;20860472;28;20033;-23
2021/04/02 04:42:43;;;;;;;0.70;0.20;;;21.10;40.70;;;;;;20863392;28;20091;-21
2021/04/02 04:53:00;;;;;;;0.10;0.10;;;21.70;39.40;;;;;;20847654;28;20032;-24
2021/04/02 05:03:02;;;;;;;0.10;0.10;;;22.10;38.40;;;;;;20861604;28;20037;-23
2021/04/02 05:13:04;;;;;;;0.22;0.10;;;22.10;38.50;;;;;;20858066;28;20026;-24
2021/04/02 05:23:05;;;;;;;0.20;0.10;;;21.90;38.70;;;;;;20847004;28;20056;-23
2021/04/02 05:33:06;;;;;;;0.40;0.15;;;21.70;38.90;;;;;;20866233;28;20476;-22
2021/04/02 05:43:15;;;;;;;0.57;0.20;;;21.50;39.00;;;;;;20860043;28;20053;-22
2021/04/02 05:53:21;;;;;;;2.58;0.10;;;21.50;39.10;;;;;;20858834;28;20040;-24
2021/04/02 06:03:22;;;;;;;0.10;0.10;;;21.40;39.00;;;;;;20861674;28;20053;-24
2021/04/02 06:13:23;;;;;;;0.55;0.10;;;21.30;39.10;;;;;;20836428;28;20037;-23
2021/04/02 06:23:26;;;;;;;1.20;0.20;;;21.30;39.10;;;;;;20897730;28;20059;-20
2021/04/02 06:33:40;;;;;;;0.40;0.17;;;21.30;39.20;;;;;;20905392;28;20021;-20
2021/04/02 06:43:49;;;;;;;0.90;0.13;;;21.30;39.00;;;;;;20914438;28;20033;-20
2021/04/02 06:53:55;;;;;;;2.47;1.20;;;21.20;39.00;;;;;;20890106;28;20036;-23
2021/04/02 07:03:57;;;;;;;2.03;0.20;;;21.30;39.00;;;;;;20912245;28;20033;-22
2021/04/02 07:14:01;;;;;;;1.55;0.38;;;21.20;38.90;;;;;;20913131;22;20037;-22
2021/04/02 07:24:02;;;;;;;2.97;0.40;;;21.20;38.90;;;;;;20868337;28;20030;-23
2021/04/02 07:34:05;;;;;;;2.72;0.60;;;21.20;39.10;;;;;;20892090;28;20034;-20
2021/04/02 07:44:07;;;;;;;6.80;1.00;;;21.20;39.10;;;;;;20867354;28;20036;-19
2021/04/02 07:54:27;;;;;;;5.75;1.05;;;21.10;39.10;;;;;;20874477;28;20029;-20
2021/04/02 08:04:53;;;;;;;2.15;1.10;;;21.00;39.40;;;;;;20890216;28;20041;-23
2021/04/02 08:14:56;;;;;;;6.82;1.52;;;21.00;39.40;;;;;;20889684;28;20061;-17
2021/04/02 08:25:01;;;;;;;5.85;1.30;;;21.40;39.40;;;;;;20862463;28;20056;-18
2021/04/02 08:35:03;;;;;;;8.55;1.35;;;21.80;39.10;;;;;;20869201;28;20025;-21
2021/04/02 08:45:09;;;;;;;10.18;1.10;;;22.50;38.20;;;;;;20865254;28;20026;-22
2021/04/02 08:55:10;;;;;;;3.15;0.90;;;23.10;37.70;;;;;;20859608;28;20025;-23
2021/04/02 09:05:11;;;;;;;6.60;1.33;;;23.40;37.50;;;;;;20863405;28;20034;-18
2021/04/02 09:15:30;;;;;;;8.98;1.20;;;23.20;38.10;;;;;;20869768;28;20095;-20
2021/04/02 09:25:30;;;;;;;14.67;1.23;;;23.00;38.50;;;;;;20861637;28;20072;-20
2021/04/02 09:35:31;;;;;;;8.63;1.10;;;22.80;39.00;;;;;;20857012;28;20029;-23
2021/04/02 09:45:34;;;;;;;8.15;0.90;;;22.70;39.40;;;;;;20867989;28;20483;-20
2021/04/02 09:55:34;;;;;;;9.45;1.40;;;22.50;39.90;;;;;;20881937;28;20037;-21
2021/04/02 10:05:35;;;;;;;10.73;1.48;;;22.30;40.20;;;;;;20878757;28;20101;-22
2021/04/02 10:15:35;;;;;;;17.60;3.43;;;22.30;40.20;;;;;;20882532;28;20071;-19
2021/04/02 10:25:36;;;;;;;12.85;2.53;;;22.20;41.10;;;;;;20882331;28;20407;-22
2021/04/02 10:35:37;;;;;;;9.95;1.33;;;22.20;40.60;;;;;;20885855;28;20029;-21
2021/04/02 10:45:38;;;;;;;10.68;1.13;;;22.20;40.60;;;;;;20867578;28;20059;-21
2021/04/02 10:55:39;;;;;;;7.30;1.42;;;22.10;40.90;;;;;;20880067;28;20453;-22
2021/04/02 11:05:39;;;;;;;8.13;1.80;;;22.30;41.90;;;;;;20870164;28;20029;-20
2021/04/02 11:15:40;;;;;;;8.20;2.17;;;22.30;42.60;;;;;;20875346;28;20095;-21
2021/04/02 11:25:40;;;;;;;12.25;1.40;;;21.80;38.30;;;;;;20887434;28;20499;-20
2021/04/02 11:35:41;;;;;;;11.73;1.30;;;21.90;37.60;;;;;;20883400;28;20104;-21
2021/04/02 11:45:42;;;;;;;10.15;2.85;;;22.30;39.60;;;;;;20853263;28;20057;-22
2021/04/02 11:55:42;;;;;;;19.25;4.70;;;22.60;40.60;;;;;;20879599;28;20104;-20
2021/04/02 12:05:43;;;;;;;20.17;4.63;;;22.90;41.30;;;;;;20863044;28;20041;-21
2021/04/02 12:15:43;;;;;;;14.95;3.97;;;22.80;41.50;;;;;;20865386;28;20490;-20
2021/04/02 12:25:44;;;;;;;16.30;4.38;;;22.80;41.90;;;;;;20872613;28;20033;-27
2021/04/02 12:35:45;;;;;;;10.95;2.90;;;22.70;42.60;;;;;;20878140;28;20032;-22
2021/04/02 12:45:45;;;;;;;11.50;2.80;;;22.60;42.80;;;;;;20844134;28;20399;-23
2021/04/02 12:55:46;;;;;;;12.13;2.70;;;22.60;43.00;;;;;;20901277;28;20052;-23
2021/04/02 13:05:47;;;;;;;9.17;2.23;;;22.60;43.10;;;;;;20903409;28;20091;-21
2021/04/02 13:15:48;;;;;;;9.20;3.28;;;22.60;43.20;;;;;;20942326;22;20481;-23
2021/04/02 13:25:49;;;;;;;8.20;2.15;;;22.60;43.50;;;;;;20903532;28;20037;-21
2021/04/02 13:35:49;;;;;;;4.97;1.80;;;22.70;43.40;;;;;;20916104;28;20029;-22
2021/04/02 13:45:50;;;;;;;8.68;1.42;;;22.60;43.60;;;;;;20914438;28;20830;-25
2021/04/02 13:55:50;;;;;;;8.25;1.90;;;22.40;43.50;;;;;;20914830;28;20028;-24
2021/04/02 14:05:51;;;;;;;4.72;1.33;;;22.60;43.70;;;;;;20915573;28;20050;-23
2021/04/02 14:15:51;;;;;;;3.78;1.60;;;22.40;43.60;;;;;;20922567;28;20039;-23
2021/04/02 14:25:52;;;;;;;5.35;1.25;;;22.50;43.90;;;;;;20916738;28;20391;-23
2021/04/02 14:35:53;;;;;;;3.80;1.27;;;22.50;43.60;;;;;;20910614;28;20036;-19
2021/04/02 14:45:53;;;;;;;5.57;1.95;;;22.50;43.80;;;;;;20910828;28;20033;-25
2021/04/02 14:55:54;;;;;;;9.52;1.77;;;22.50;43.40;;;;;;20880273;28;20108;-21
2021/04/02 15:05:55;;;;;;;12.95;2.22;;;22.40;43.40;;;;;;20876462;28;20032;-21
2021/04/02 15:15:55;;;;;;;14.07;2.28;;;22.50;43.70;;;;;;20890712;28;20037;-22
2021/04/02 15:25:56;;;;;;;21.05;4.35;;;22.90;44.00;;;;;;20910710;28;20025;-26
2021/04/02 15:35:57;;;;;;;17.08;2.65;;;23.10;43.70;;;;;;20889917;28;20024;-25
2021/04/02 15:45:58;;;;;;;11.70;2.88;;;23.50;42.90;;;;;;20825273;28;20484;-24
2021/04/02 15:55:58;;;;;;;7.53;2.00;;;23.90;42.20;;;;;;20907114;28;20689;-21
2021/04/02 16:06:01;;;;;;;5.77;1.60;;;23.90;42.00;;;;;;20907780;28;20028;-23
2021/04/02 16:16:04;;;;;;;7.88;1.60;;;23.70;42.60;;;;;;20908003;28;20064;-20
2021/04/02 16:26:04;;;;;;;17.67;10.35;;;23.50;43.10;;;;;;20874485;28;20483;-23
2021/04/02 16:36:05;;;;;;;12.63;9.10;;;23.50;43.20;;;;;;20822317;28;20436;-20
2021/04/02 16:46:06;;;;;;;16.55;9.07;;;23.30;43.60;;;;;;20838611;28;21049;-24
2021/04/02 16:56:07;;;;;;;21.85;10.15;;;23.30;44.00;;;;;;20828529;28;20025;-23
2021/04/02 17:06:08;;;;;;;14.02;9.65;;;23.20;44.70;;;;;;20837671;28;20022;-23
2021/04/02 17:16:12;;;;;;;13.98;6.47;;;23.10;45.00;;;;;;20859143;28;20029;-23
2021/04/02 17:26:12;;;;;;;11.98;3.70;;;23.00;42.50;;;;;;20898852;28;20021;-24
2021/04/02 17:36:13;;;;;;;12.60;4.10;;;23.00;41.60;;;;;;20888866;28;20048;-23
2021/04/02 17:46:13;;;;;;;11.27;4.05;;;23.00;42.80;;;;;;20931728;28;20550;-24
2021/04/02 17:56:14;;;;;;;9.30;3.72;;;23.10;43.10;;;;;;20918229;28;20025;-25
2021/04/02 18:06:15;;;;;;;13.50;4.53;;;23.10;43.80;;;;;;20902052;28;20060;-22
2021/04/02 18:16:15;;;;;;;6.38;3.10;;;23.20;43.60;;;;;;20887192;28;20069;-25
2021/04/02 18:26:17;;;;;;;6.10;2.70;;;23.20;43.60;;;;;;20881945;28;20033;-22
2021/04/02 18:36:18;;;;;;;9.27;2.42;;;23.20;43.50;;;;;;20891390;28;20553;-26
2021/04/02 18:46:18;;;;;;;11.10;2.63;;;23.20;43.70;;;;;;20869602;28;20108;-25
2021/04/02 18:56:19;;;;;;;5.75;2.10;;;23.10;43.50;;;;;;20900711;28;20033;-24
2021/04/02 19:06:19;;;;;;;7.47;1.83;;;23.20;43.90;;;;;;20853667;28;20399;-25
2021/04/02 19:16:20;;;;;;;16.33;3.53;;;23.10;43.60;;;;;;20888211;28;20068;-21
2021/04/02 19:26:21;;;;;;;12.18;2.30;;;23.40;44.20;;;;;;20908826;28;20499;-22
2021/04/02 19:36:21;;;;;;;10.45;2.60;;;23.10;44.10;;;;;;20880152;28;20033;-21
2021/04/02 19:46:22;;;;;;;10.32;4.40;;;23.10;44.20;;;;;;20854382;28;20041;-22
2021/04/02 19:56:23;;;;;;;10.48;2.30;;;23.00;44.50;;;;;;20854996;28;20026;-25
2021/04/02 20:06:23;;;;;;;11.70;2.45;;;23.00;44.30;;;;;;20855561;28;20036;-21
2021/04/02 20:16:24;;;;;;;9.03;1.80;;;23.10;44.30;;;;;;20850621;28;20546;-23
2021/04/02 20:26:24;;;;;;;7.00;2.00;;;23.10;43.90;;;;;;20855101;28;20464;-24
2021/04/02 20:36:25;;;;;;;3.85;1.92;;;23.20;43.50;;;;;;20849373;28;20435;-24
2021/04/02 20:46:26;;;;;;;4.20;0.90;;;23.10;43.40;;;;;;20883185;28;20030;-23
2021/04/02 20:56:31;;;;;;;3.17;1.27;;;23.20;43.10;;;;;;20878974;28;20030;-21
2021/04/02 21:06:32;;;;;;;3.67;1.20;;;23.30;43.30;;;;;;20855681;28;20080;-22
2021/04/02 21:16:33;;;;;;;3.67;1.02;;;23.30;42.50;;;;;;20859539;28;20431;-21
2021/04/02 21:26:33;;;;;;;4.03;1.23;;;23.40;42.30;;;;;;20880979;28;20442;-21
2021/04/02 21:36:34;;;;;;;3.47;1.30;;;23.30;42.70;;;;;;20903080;28;20486;-23
2021/04/02 21:46:35;;;;;;;8.60;2.07;;;23.00;43.90;;;;;;20872919;28;20048;-21
2021/04/02 21:56:36;;;;;;;6.82;1.45;;;22.90;45.20;;;;;;20854364;28;20484;-22
2021/04/02 22:06:36;;;;;;;4.75;1.60;;;22.60;45.60;;;;;;20835416;28;20040;-25
2021/04/02 22:16:37;;;;;;;8.27;2.07;;;22.50;46.20;;;;;;20848072;28;20034;-24
2021/04/02 22:26:38;;;;;;;8.45;1.88;;;22.40;46.70;;;;;;20893290;28;20033;-23
2021/04/02 22:36:39;;;;;;;6.22;2.03;;;22.10;47.20;;;;;;20916209;28;20033;-22
2021/04/02 22:46:39;;;;;;;6.25;2.10;;;22.00;47.50;;;;;;20918030;28;20432;-21
2021/04/02 22:56:40;;;;;;;4.43;1.83;;;21.80;47.30;;;;;;20913297;28;20025;-21
2021/04/02 23:06:41;;;;;;;8.15;2.00;;;21.60;47.80;;;;;;20916629;28;20190;-23
2021/04/02 23:16:44;;;;;;;10.00;1.83;;;21.50;46.70;;;;;;20922687;28;20033;-21
2021/04/02 23:26:45;;;;;;;8.90;2.40;;;21.50;46.50;;;;;;20915089;28;20419;-22
2021/04/02 23:36:45;;;;;;;9.50;2.17;;;21.40;46.30;;;;;;20911126;28;20081;-20
2021/04/02 23:46:46;;;;;;;8.88;2.13;;;21.30;46.10;;;;;;20909151;28;20033;-20
2021/04/02 23:56:46;;;;;;;11.82;2.35;;;21.20;45.90;;;;;;20908456;28;20110;-19
